sensor_id;sensor_type;location;lat;lon;timestamp;pressure;altitude;pressure_sealevel;temperature;humidity
32131;BME280;18639;50.716;7.086;2022-08-19T00:01:46;100089.56;;;19.03;93.14
32131;BME280;18639;50.716;7.086;2022-08-19T00:04:13;100081.38;;;18.98;93.13
32131;BME280;18639;50.716;7.086;2022-08-19T00:06:41;100084.19;;;18.96;93.36
32131;BME280;18639;50.716;7.086;2022-08-19T00:09:09;100085.97;;;18.96;93.41
32131;BME280;18639;50.716;7.086;2022-08-19T00:11:35;100085.31;;;18.93;93.43
32131;BME280;18639;50.716;7.086;2022-08-19T00:14:01;100095.94;;;18.92;93.97
32131;BME280;18639;50.716;7.086;2022-08-19T00:16:27;100077.88;;;18.81;93.63
32131;BME280;18639;50.716;7.086;2022-08-19T00:18:54;100092.00;;;18.88;94.28
32131;BME280;18639;50.716;7.086;2022-08-19T00:21:20;100095.09;;;18.83;94.26
32131;BME280;18639;50.716;7.086;2022-08-19T00:23:45;100099.84;;;18.80;94.38
32131;BME280;18639;50.716;7.086;2022-08-19T00:26:11;100081.94;;;18.75;94.41
32131;BME280;18639;50.716;7.086;2022-08-19T00:28:36;100031.19;;;18.34;94.09
32131;BME280;18639;50.716;7.086;2022-08-19T00:31:03;100065.06;;;18.62;94.25
32131;BME280;18639;50.716;7.086;2022-08-19T00:33:30;100104.25;;;18.79;94.50
32131;BME280;18639;50.716;7.086;2022-08-19T00:35:58;100095.38;;;18.72;94.34
32131;BME280;18639;50.716;7.086;2022-08-19T00:38:23;100056.94;;;18.47;94.52
32131;BME280;18639;50.716;7.086;2022-08-19T00:40:49;100098.59;;;18.66;94.49
32131;BME280;18639;50.716;7.086;2022-08-19T00:43:18;100108.47;;;18.72;95.06
32131;BME280;18639;50.716;7.086;2022-08-19T00:45:44;100112.03;;;18.71;94.96
32131;BME280;18639;50.716;7.086;2022-08-19T00:48:10;100106.16;;;18.69;95.48
32131;BME280;18639;50.716;7.086;2022-08-19T00:50:36;100089.91;;;18.58;95.59
32131;BME280;18639;50.716;7.086;2022-08-19T00:53:03;100088.41;;;18.55;95.97
32131;BME280;18639;50.716;7.086;2022-08-19T00:55:30;100094.47;;;18.56;95.83
32131;BME280;18639;50.716;7.086;2022-08-19T00:58:07;100107.63;;;18.64;95.92
32131;BME280;18639;50.716;7.086;2022-08-19T01:00:35;100106.44;;;18.58;95.99
32131;BME280;18639;50.716;7.086;2022-08-19T01:03:05;100091.19;;;18.54;96.21
32131;BME280;18639;50.716;7.086;2022-08-19T01:05:31;100099.69;;;18.56;96.41
32131;BME280;18639;50.716;7.086;2022-08-19T01:07:58;100106.19;;;18.51;97.03
32131;BME280;18639;50.716;7.086;2022-08-19T01:10:28;100095.59;;;18.53;96.60
32131;BME280;18639;50.716;7.086;2022-08-19T01:12:54;100102.63;;;18.52;97.09
32131;BME280;18639;50.716;7.086;2022-08-19T01:15:23;100090.50;;;18.51;96.99
32131;BME280;18639;50.716;7.086;2022-08-19T01:17:51;100068.34;;;18.38;97.22
32131;BME280;18639;50.716;7.086;2022-08-19T01:20:21;100088.03;;;18.50;97.28
32131;BME280;18639;50.716;7.086;2022-08-19T01:22:50;100082.16;;;18.48;97.09
32131;BME280;18639;50.716;7.086;2022-08-19T01:25:19;100081.31;;;18.47;97.03
32131;BME280;18639;50.716;7.086;2022-08-19T01:27:48;100085.88;;;18.45;97.33
32131;BME280;18639;50.716;7.086;2022-08-19T01:30:18;100087.69;;;18.45;97.11
32131;BME280;18639;50.716;7.086;2022-08-19T01:32:44;100068.66;;;18.35;97.10
32131;BME280;18639;50.716;7.086;2022-08-19T01:35:10;100084.41;;;18.43;97.34
32131;BME280;18639;50.716;7.086;2022-08-19T01:37:59;100044.69;;;18.22;97.77
32131;BME280;18639;50.716;7.086;2022-08-19T01:40:29;100077.69;;;18.40;97.53
32131;BME280;18639;50.716;7.086;2022-08-19T01:42:55;100073.22;;;18.33;97.68
32131;BME280;18639;50.716;7.086;2022-08-19T01:45:23;100083.75;;;18.41;97.67
32131;BME280;18639;50.716;7.086;2022-08-19T01:47:49;100077.47;;;18.34;97.74
32131;BME280;18639;50.716;7.086;2022-08-19T01:50:14;100082.09;;;18.40;98.05
32131;BME280;18639;50.716;7.086;2022-08-19T01:52:42;100087.03;;;18.43;97.86
32131;BME280;18639;50.716;7.086;2022-08-19T01:55:13;100089.94;;;18.40;97.71
32131;BME280;18639;50.716;7.086;2022-08-19T01:57:41;100094.06;;;18.42;98.05
32131;BME280;18639;50.716;7.086;2022-08-19T02:00:11;100089.59;;;18.35;98.18
32131;BME280;18639;50.716;7.086;2022-08-19T02:02:38;100072.22;;;18.26;98.10
32131;BME280;18639;50.716;7.086;2022-08-19T02:05:06;100065.34;;;18.25;98.47
32131;BME280;18639;50.716;7.086;2022-08-19T02:07:33;100085.38;;;18.42;98.32
32131;BME280;18639;50.716;7.086;2022-08-19T02:10:02;100045.00;;;18.11;98.53
32131;BME280;18639;50.716;7.086;2022-08-19T02:12:28;100075.53;;;18.36;98.62
32131;BME280;18639;50.716;7.086;2022-08-19T02:14:54;100074.56;;;18.37;98.59
32131;BME280;18639;50.716;7.086;2022-08-19T02:17:19;100073.06;;;18.34;98.90
32131;BME280;18639;50.716;7.086;2022-08-19T02:19:45;100057.47;;;18.25;98.01
32131;BME280;18639;50.716;7.086;2022-08-19T02:22:10;100076.00;;;18.31;98.54
32131;BME280;18639;50.716;7.086;2022-08-19T02:24:36;100084.84;;;18.38;98.27
32131;BME280;18639;50.716;7.086;2022-08-19T02:27:01;100028.25;;;18.03;98.23
32131;BME280;18639;50.716;7.086;2022-08-19T02:29:26;100048.56;;;18.09;98.53
32131;BME280;18639;50.716;7.086;2022-08-19T02:31:52;100061.22;;;18.22;98.81
32131;BME280;18639;50.716;7.086;2022-08-19T02:34:17;100063.53;;;18.25;98.62
32131;BME280;18639;50.716;7.086;2022-08-19T02:36:42;100058.44;;;18.16;98.75
32131;BME280;18639;50.716;7.086;2022-08-19T02:39:08;100063.34;;;18.19;98.71
32131;BME280;18639;50.716;7.086;2022-08-19T02:41:34;100064.97;;;18.20;98.81
32131;BME280;18639;50.716;7.086;2022-08-19T02:44:01;100085.31;;;18.34;99.11
32131;BME280;18639;50.716;7.086;2022-08-19T02:46:31;100089.59;;;18.35;99.08
32131;BME280;18639;50.716;7.086;2022-08-19T02:49:00;100096.63;;;18.34;98.98
32131;BME280;18639;50.716;7.086;2022-08-19T02:51:30;100077.09;;;18.21;99.08
32131;BME280;18639;50.716;7.086;2022-08-19T02:53:56;100102.00;;;18.33;99.08
32131;BME280;18639;50.716;7.086;2022-08-19T02:56:21;100100.38;;;18.32;99.12
32131;BME280;18639;50.716;7.086;2022-08-19T02:58:47;100089.56;;;18.27;99.31
32131;BME280;18639;50.716;7.086;2022-08-19T03:01:25;100105.44;;;18.33;99.38
32131;BME280;18639;50.716;7.086;2022-08-19T03:03:52;100102.16;;;18.31;99.40
32131;BME280;18639;50.716;7.086;2022-08-19T03:06:18;100087.38;;;18.22;99.43
32131;BME280;18639;50.716;7.086;2022-08-19T03:08:45;100101.28;;;18.23;99.68
32131;BME280;18639;50.716;7.086;2022-08-19T03:11:19;100081.25;;;18.05;99.38
32131;BME280;18639;50.716;7.086;2022-08-19T03:13:45;100074.66;;;18.01;99.44
32131;BME280;18639;50.716;7.086;2022-08-19T03:16:12;100102.94;;;18.24;99.91
32131;BME280;18639;50.716;7.086;2022-08-19T03:18:37;100101.28;;;18.23;99.73
32131;BME280;18639;50.716;7.086;2022-08-19T03:21:04;100092.59;;;18.22;99.68
32131;BME280;18639;50.716;7.086;2022-08-19T03:23:29;100104.06;;;18.21;99.82
32131;BME280;18639;50.716;7.086;2022-08-19T03:25:54;100094.38;;;18.14;100.00
32131;BME280;18639;50.716;7.086;2022-08-19T03:28:20;100110.41;;;18.19;100.00
32131;BME280;18639;50.716;7.086;2022-08-19T03:31:05;100097.28;;;18.11;100.00
32131;BME280;18639;50.716;7.086;2022-08-19T03:33:34;100103.19;;;18.13;100.00
32131;BME280;18639;50.716;7.086;2022-08-19T03:36:17;100112.66;;;18.14;99.97
32131;BME280;18639;50.716;7.086;2022-08-19T03:38:46;100116.25;;;18.13;100.00
32131;BME280;18639;50.716;7.086;2022-08-19T03:41:16;100105.56;;;18.06;100.00
32131;BME280;18639;50.716;7.086;2022-08-19T03:43:42;100113.00;;;18.11;100.00
32131;BME280;18639;50.716;7.086;2022-08-19T03:46:11;100106.25;;;18.08;100.00
32131;BME280;18639;50.716;7.086;2022-08-19T03:48:37;100101.50;;;18.03;100.00
32131;BME280;18639;50.716;7.086;2022-08-19T03:51:04;100106.41;;;18.06;100.00
32131;BME280;18639;50.716;7.086;2022-08-19T03:53:31;100107.53;;;18.04;100.00
32131;BME280;18639;50.716;7.086;2022-08-19T03:55:57;100109.94;;;17.97;100.00
32131;BME280;18639;50.716;7.086;2022-08-19T03:58:26;100102.69;;;17.91;100.00
32131;BME280;18639;50.716;7.086;2022-08-19T04:00:54;100116.66;;;18.00;100.00
32131;BME280;18639;50.716;7.086;2022-08-19T04:03:20;100055.34;;;17.59;100.00
32131;BME280;18639;50.716;7.086;2022-08-19T04:05:46;100120.53;;;17.96;100.00
32131;BME280;18639;50.716;7.086;2022-08-19T04:08:12;100063.91;;;17.61;100.00
32131;BME280;18639;50.716;7.086;2022-08-19T04:10:38;100072.72;;;17.60;100.00
32131;BME280;18639;50.716;7.086;2022-08-19T04:13:04;100115.63;;;17.93;100.00
32131;BME280;18639;50.716;7.086;2022-08-19T04:15:31;100127.06;;;17.92;100.00
32131;BME280;18639;50.716;7.086;2022-08-19T04:18:00;100113.38;;;17.80;100.00
32131;BME280;18639;50.716;7.086;2022-08-19T04:20:26;100102.28;;;17.78;100.00
32131;BME280;18639;50.716;7.086;2022-08-19T04:22:51;100124.44;;;17.92;100.00
32131;BME280;18639;50.716;7.086;2022-08-19T04:25:16;100122.28;;;17.87;100.00
32131;BME280;18639;50.716;7.086;2022-08-19T04:27:41;100125.84;;;17.86;100.00
32131;BME280;18639;50.716;7.086;2022-08-19T04:30:12;100112.28;;;17.83;100.00
32131;BME280;18639;50.716;7.086;2022-08-19T04:32:37;100133.84;;;17.85;100.00
32131;BME280;18639;50.716;7.086;2022-08-19T04:35:04;100073.72;;;17.49;100.00
32131;BME280;18639;50.716;7.086;2022-08-19T04:37:29;100110.13;;;17.78;100.00
32131;BME280;18639;50.716;7.086;2022-08-19T04:39:56;100125.56;;;17.89;100.00
32131;BME280;18639;50.716;7.086;2022-08-19T04:42:40;100122.44;;;17.86;100.00
32131;BME280;18639;50.716;7.086;2022-08-19T04:45:09;100127.72;;;17.94;100.00
32131;BME280;18639;50.716;7.086;2022-08-19T04:47:36;100123.94;;;17.88;100.00
32131;BME280;18639;50.716;7.086;2022-08-19T04:50:02;100136.84;;;17.90;100.00
32131;BME280;18639;50.716;7.086;2022-08-19T04:52:28;100148.47;;;17.95;100.00
32131;BME280;18639;50.716;7.086;2022-08-19T04:54:53;100139.97;;;17.93;100.00
32131;BME280;18639;50.716;7.086;2022-08-19T04:57:20;100152.47;;;17.99;100.00
32131;BME280;18639;50.716;7.086;2022-08-19T04:59:46;100146.19;;;17.92;100.00
32131;BME280;18639;50.716;7.086;2022-08-19T05:02:11;100148.69;;;18.02;100.00
32131;BME280;18639;50.716;7.086;2022-08-19T05:04:36;100143.94;;;17.97;100.00
32131;BME280;18639;50.716;7.086;2022-08-19T05:07:04;100142.66;;;18.01;100.00
32131;BME280;18639;50.716;7.086;2022-08-19T05:09:30;100154.38;;;17.97;100.00
32131;BME280;18639;50.716;7.086;2022-08-19T05:11:55;100150.50;;;18.01;100.00
32131;BME280;18639;50.716;7.086;2022-08-19T05:14:20;100150.84;;;18.06;100.00
32131;BME280;18639;50.716;7.086;2022-08-19T05:16:47;100129.53;;;17.93;100.00
32131;BME280;18639;50.716;7.086;2022-08-19T05:19:12;100143.84;;;18.07;100.00
32131;BME280;18639;50.716;7.086;2022-08-19T05:21:56;100165.19;;;18.20;100.00
32131;BME280;18639;50.716;7.086;2022-08-19T05:24:40;100167.03;;;18.28;100.00
32131;BME280;18639;50.716;7.086;2022-08-19T05:27:05;100170.34;;;18.30;100.00
32131;BME280;18639;50.716;7.086;2022-08-19T05:29:32;100172.72;;;18.41;100.00
32131;BME280;18639;50.716;7.086;2022-08-19T05:32:00;100176.50;;;18.46;100.00
32131;BME280;18639;50.716;7.086;2022-08-19T05:34:26;100168.19;;;18.51;100.00
32131;BME280;18639;50.716;7.086;2022-08-19T05:36:55;100172.03;;;18.57;100.00
32131;BME280;18639;50.716;7.086;2022-08-19T05:39:25;100182.69;;;18.63;100.00
32131;BME280;18639;50.716;7.086;2022-08-19T05:41:54;100178.13;;;18.65;100.00
32131;BME280;18639;50.716;7.086;2022-08-19T05:44:23;100172.41;;;18.70;100.00
32131;BME280;18639;50.716;7.086;2022-08-19T05:46:49;100178.19;;;18.73;100.00
32131;BME280;18639;50.716;7.086;2022-08-19T05:49:15;100169.34;;;18.74;100.00
32131;BME280;18639;50.716;7.086;2022-08-19T05:51:41;100176.56;;;18.80;100.00
32131;BME280;18639;50.716;7.086;2022-08-19T05:54:07;100177.91;;;18.84;100.00
32131;BME280;18639;50.716;7.086;2022-08-19T05:56:33;100135.22;;;18.58;100.00
32131;BME280;18639;50.716;7.086;2022-08-19T05:59:04;100171.38;;;18.88;100.00
32131;BME280;18639;50.716;7.086;2022-08-19T06:01:35;100178.25;;;18.89;100.00
32131;BME280;18639;50.716;7.086;2022-08-19T06:04:01;100159.25;;;18.87;100.00
32131;BME280;18639;50.716;7.086;2022-08-19T06:06:26;100172.06;;;18.99;100.00
32131;BME280;18639;50.716;7.086;2022-08-19T06:08:51;100159.31;;;18.96;100.00
32131;BME280;18639;50.716;7.086;2022-08-19T06:11:38;100181.59;;;19.08;100.00
32131;BME280;18639;50.716;7.086;2022-08-19T06:14:10;100177.19;;;19.08;100.00
32131;BME280;18639;50.716;7.086;2022-08-19T06:16:38;100189.16;;;19.11;100.00
32131;BME280;18639;50.716;7.086;2022-08-19T06:19:07;100185.72;;;19.18;100.00
32131;BME280;18639;50.716;7.086;2022-08-19T06:21:34;100174.13;;;19.21;100.00
32131;BME280;18639;50.716;7.086;2022-08-19T06:24:02;100177.59;;;19.29;100.00
32131;BME280;18639;50.716;7.086;2022-08-19T06:26:29;100179.56;;;19.35;100.00
32131;BME280;18639;50.716;7.086;2022-08-19T06:28:54;100179.91;;;19.41;100.00
32131;BME280;18639;50.716;7.086;2022-08-19T06:31:25;100182.59;;;19.49;100.00
32131;BME280;18639;50.716;7.086;2022-08-19T06:33:50;100177.69;;;19.54;100.00
32131;BME280;18639;50.716;7.086;2022-08-19T06:36:25;100167.84;;;19.48;100.00
32131;BME280;18639;50.716;7.086;2022-08-19T06:39:03;100185.56;;;19.62;100.00
32131;BME280;18639;50.716;7.086;2022-08-19T06:41:30;100167.84;;;19.56;100.00
32131;BME280;18639;50.716;7.086;2022-08-19T06:43:56;100192.50;;;19.79;100.00
32131;BME280;18639;50.716;7.086;2022-08-19T06:46:22;100191.34;;;19.90;100.00
32131;BME280;18639;50.716;7.086;2022-08-19T06:48:48;100185.13;;;19.91;99.52
32131;BME280;18639;50.716;7.086;2022-08-19T06:51:15;100196.63;;;19.98;99.92
32131;BME280;18639;50.716;7.086;2022-08-19T06:53:44;100190.06;;;20.02;98.69
32131;BME280;18639;50.716;7.086;2022-08-19T06:56:16;100197.91;;;20.10;97.97
32131;BME280;18639;50.716;7.086;2022-08-19T06:58:41;100179.72;;;20.00;97.47
32131;BME280;18639;50.716;7.086;2022-08-19T07:01:07;100198.56;;;20.20;97.01
32131;BME280;18639;50.716;7.086;2022-08-19T07:03:35;100200.69;;;20.25;96.73
32131;BME280;18639;50.716;7.086;2022-08-19T07:08:30;100193.31;;;20.20;96.59
32131;BME280;18639;50.716;7.086;2022-08-19T07:10:56;100193.19;;;20.38;96.63
32131;BME280;18639;50.716;7.086;2022-08-19T07:13:22;100177.28;;;20.31;96.26
32131;BME280;18639;50.716;7.086;2022-08-19T07:15:48;100153.66;;;20.23;95.48
32131;BME280;18639;50.716;7.086;2022-08-19T07:18:15;100193.97;;;20.63;95.62
32131;BME280;18639;50.716;7.086;2022-08-19T07:20:41;100181.84;;;20.53;94.72
32131;BME280;18639;50.716;7.086;2022-08-19T07:23:06;100194.44;;;20.82;92.67
32131;BME280;18639;50.716;7.086;2022-08-19T07:25:32;100198.34;;;20.86;92.49
32131;BME280;18639;50.716;7.086;2022-08-19T07:27:57;100200.75;;;21.04;92.97
32131;BME280;18639;50.716;7.086;2022-08-19T07:30:22;100211.25;;;21.20;91.24
32131;BME280;18639;50.716;7.086;2022-08-19T07:32:49;100211.94;;;21.45;90.07
32131;BME280;18639;50.716;7.086;2022-08-19T07:35:16;100204.28;;;21.58;91.10
32131;BME280;18639;50.716;7.086;2022-08-19T07:37:44;100211.94;;;21.76;89.22
32131;BME280;18639;50.716;7.086;2022-08-19T07:40:10;100219.41;;;21.95;88.39
32131;BME280;18639;50.716;7.086;2022-08-19T07:42:35;100222.25;;;22.08;88.01
32131;BME280;18639;50.716;7.086;2022-08-19T07:45:00;100224.47;;;22.19;88.19
32131;BME280;18639;50.716;7.086;2022-08-19T07:47:26;100223.34;;;22.37;86.63
32131;BME280;18639;50.716;7.086;2022-08-19T07:49:53;100224.56;;;22.49;84.24
32131;BME280;18639;50.716;7.086;2022-08-19T07:52:18;100230.81;;;22.48;84.56
32131;BME280;18639;50.716;7.086;2022-08-19T07:54:43;100226.13;;;22.58;84.13
32131;BME280;18639;50.716;7.086;2022-08-19T07:57:09;100209.88;;;22.69;83.87
32131;BME280;18639;50.716;7.086;2022-08-19T07:59:34;100212.38;;;22.85;83.81
32131;BME280;18639;50.716;7.086;2022-08-19T08:02:00;100210.16;;;23.03;83.34
32131;BME280;18639;50.716;7.086;2022-08-19T08:04:26;100215.59;;;23.31;82.58
32131;BME280;18639;50.716;7.086;2022-08-19T08:07:10;100224.81;;;23.50;82.14
32131;BME280;18639;50.716;7.086;2022-08-19T08:09:54;100216.84;;;23.65;82.30
32131;BME280;18639;50.716;7.086;2022-08-19T08:12:24;100223.06;;;23.78;80.70
32131;BME280;18639;50.716;7.086;2022-08-19T08:15:00;100225.09;;;23.98;77.59
32131;BME280;18639;50.716;7.086;2022-08-19T08:17:30;100225.22;;;24.11;77.24
32131;BME280;18639;50.716;7.086;2022-08-19T08:19:55;100227.09;;;24.17;76.06
32131;BME280;18639;50.716;7.086;2022-08-19T08:22:22;100222.50;;;24.19;76.77
32131;BME280;18639;50.716;7.086;2022-08-19T08:25:13;100220.34;;;24.29;76.66
32131;BME280;18639;50.716;7.086;2022-08-19T08:27:40;100226.47;;;24.57;74.65
32131;BME280;18639;50.716;7.086;2022-08-19T08:30:08;100223.03;;;24.63;74.18
32131;BME280;18639;50.716;7.086;2022-08-19T08:32:36;100212.97;;;24.52;74.10
32131;BME280;18639;50.716;7.086;2022-08-19T08:35:02;100215.31;;;24.68;73.44
32131;BME280;18639;50.716;7.086;2022-08-19T08:37:28;100218.47;;;24.51;71.80
32131;BME280;18639;50.716;7.086;2022-08-19T08:39:56;100221.00;;;24.65;72.56
32131;BME280;18639;50.716;7.086;2022-08-19T08:42:34;100216.97;;;24.97;71.57
32131;BME280;18639;50.716;7.086;2022-08-19T08:45:13;100226.25;;;25.21;71.35
32131;BME280;18639;50.716;7.086;2022-08-19T08:47:43;100230.72;;;25.27;69.68
32131;BME280;18639;50.716;7.086;2022-08-19T08:52:49;100219.72;;;25.71;70.43
32131;BME280;18639;50.716;7.086;2022-08-19T08:55:20;100230.16;;;25.92;67.31
32131;BME280;18639;50.716;7.086;2022-08-19T08:57:51;100233.03;;;26.04;67.50
32131;BME280;18639;50.716;7.086;2022-08-19T09:00:32;100224.94;;;26.25;66.33
32131;BME280;18639;50.716;7.086;2022-08-19T09:02:58;100224.50;;;26.68;66.88
32131;BME280;18639;50.716;7.086;2022-08-19T09:05:36;100205.28;;;26.79;62.47
32131;BME280;18639;50.716;7.086;2022-08-19T09:08:09;100215.41;;;27.21;60.27
32131;BME280;18639;50.716;7.086;2022-08-19T09:10:44;100227.38;;;27.82;60.33
32131;BME280;18639;50.716;7.086;2022-08-19T09:13:24;100219.03;;;28.34;56.42
32131;BME280;18639;50.716;7.086;2022-08-19T09:15:56;100212.13;;;29.31;54.06
32131;BME280;18639;50.716;7.086;2022-08-19T09:18:23;100209.66;;;29.78;50.94
32131;BME280;18639;50.716;7.086;2022-08-19T09:20:49;100212.56;;;29.88;50.97
32131;BME280;18639;50.716;7.086;2022-08-19T09:23:15;100215.78;;;30.20;49.11
32131;BME280;18639;50.716;7.086;2022-08-19T09:25:40;100217.66;;;30.42;47.76
32131;BME280;18639;50.716;7.086;2022-08-19T09:28:06;100202.84;;;30.58;48.65
32131;BME280;18639;50.716;7.086;2022-08-19T09:30:39;100199.28;;;31.16;47.01
32131;BME280;18639;50.716;7.086;2022-08-19T09:33:06;100184.09;;;31.05;47.15
32131;BME280;18639;50.716;7.086;2022-08-19T09:35:32;100215.69;;;30.96;46.34
32131;BME280;18639;50.716;7.086;2022-08-19T09:37:59;100214.75;;;31.14;47.07
32131;BME280;18639;50.716;7.086;2022-08-19T09:40:25;100217.00;;;31.33;45.85
32131;BME280;18639;50.716;7.086;2022-08-19T09:42:51;100204.66;;;30.92;45.57
32131;BME280;18639;50.716;7.086;2022-08-19T09:45:19;100190.41;;;30.75;46.15
32131;BME280;18639;50.716;7.086;2022-08-19T09:47:46;100215.09;;;31.17;45.75
32131;BME280;18639;50.716;7.086;2022-08-19T09:50:12;100190.63;;;30.97;45.25
32131;BME280;18639;50.716;7.086;2022-08-19T09:52:38;100211.38;;;31.47;44.09
32131;BME280;18639;50.716;7.086;2022-08-19T09:55:05;100208.41;;;31.88;42.43
32131;BME280;18639;50.716;7.086;2022-08-19T09:57:31;100213.00;;;32.21;42.31
32131;BME280;18639;50.716;7.086;2022-08-19T09:59:56;100199.50;;;31.83;43.86
32131;BME280;18639;50.716;7.086;2022-08-19T10:02:22;100211.19;;;32.10;41.22
32131;BME280;18639;50.716;7.086;2022-08-19T10:04:47;100199.16;;;31.96;42.73
32131;BME280;18639;50.716;7.086;2022-08-19T10:07:31;100207.75;;;31.81;42.15
32131;BME280;18639;50.716;7.086;2022-08-19T10:09:56;100206.38;;;31.79;41.59
32131;BME280;18639;50.716;7.086;2022-08-19T10:12:22;100206.13;;;31.80;42.43
32131;BME280;18639;50.716;7.086;2022-08-19T10:14:47;100203.47;;;31.52;41.31
32131;BME280;18639;50.716;7.086;2022-08-19T10:17:13;100202.06;;;31.61;42.00
32131;BME280;18639;50.716;7.086;2022-08-19T10:19:39;100208.41;;;31.88;40.99
32131;BME280;18639;50.716;7.086;2022-08-19T10:22:06;100207.09;;;31.74;41.63
32131;BME280;18639;50.716;7.086;2022-08-19T10:24:33;100206.13;;;31.97;41.79
32131;BME280;18639;50.716;7.086;2022-08-19T10:26:59;100199.94;;;31.63;41.32
32131;BME280;18639;50.716;7.086;2022-08-19T10:29:29;100195.03;;;30.91;43.80
32131;BME280;18639;50.716;7.086;2022-08-19T10:31:54;100179.53;;;30.77;43.71
32131;BME280;18639;50.716;7.086;2022-08-19T10:34:21;100191.34;;;30.58;44.47
32131;BME280;18639;50.716;7.086;2022-08-19T10:36:46;100182.13;;;30.88;45.09
32131;BME280;18639;50.716;7.086;2022-08-19T10:39:11;100198.53;;;30.92;43.28
32131;BME280;18639;50.716;7.086;2022-08-19T10:41:39;100172.38;;;30.94;44.25
32131;BME280;18639;50.716;7.086;2022-08-19T10:44:09;100189.09;;;31.13;43.30
32131;BME280;18639;50.716;7.086;2022-08-19T10:46:38;100176.56;;;30.90;43.16
32131;BME280;18639;50.716;7.086;2022-08-19T10:49:07;100196.81;;;30.74;43.72
32131;BME280;18639;50.716;7.086;2022-08-19T10:51:33;100176.03;;;30.41;43.95
32131;BME280;18639;50.716;7.086;2022-08-19T10:54:18;100184.38;;;30.10;44.78
32131;BME280;18639;50.716;7.086;2022-08-19T10:56:43;100158.69;;;29.44;45.41
32131;BME280;18639;50.716;7.086;2022-08-19T10:59:23;100182.56;;;29.03;47.04
32131;BME280;18639;50.716;7.086;2022-08-19T11:01:50;100191.34;;;28.85;46.94
32131;BME280;18639;50.716;7.086;2022-08-19T11:04:18;100184.75;;;28.69;47.83
32131;BME280;18639;50.716;7.086;2022-08-19T11:06:47;100175.72;;;28.52;48.41
32131;BME280;18639;50.716;7.086;2022-08-19T11:09:19;100183.97;;;28.26;48.78
32131;BME280;18639;50.716;7.086;2022-08-19T11:11:45;100177.06;;;28.18;47.88
32131;BME280;18639;50.716;7.086;2022-08-19T11:14:13;100174.09;;;28.01;48.90
32131;BME280;18639;50.716;7.086;2022-08-19T11:16:40;100173.22;;;28.08;49.03
32131;BME280;18639;50.716;7.086;2022-08-19T11:19:07;100174.25;;;28.13;49.21
32131;BME280;18639;50.716;7.086;2022-08-19T11:21:39;100172.28;;;28.27;47.29
32131;BME280;18639;50.716;7.086;2022-08-19T11:24:11;100162.13;;;27.92;48.52
32131;BME280;18639;50.716;7.086;2022-08-19T11:26:38;100164.91;;;27.73;48.55
32131;BME280;18639;50.716;7.086;2022-08-19T11:29:05;100174.31;;;27.69;49.59
32131;BME280;18639;50.716;7.086;2022-08-19T11:31:33;100171.97;;;27.47;48.67
32131;BME280;18639;50.716;7.086;2022-08-19T11:33:59;100175.25;;;27.56;48.76
32131;BME280;18639;50.716;7.086;2022-08-19T11:36:25;100174.88;;;27.46;49.36
32131;BME280;18639;50.716;7.086;2022-08-19T11:38:51;100164.69;;;27.36;48.76
32131;BME280;18639;50.716;7.086;2022-08-19T11:41:20;100145.59;;;27.14;48.83
32131;BME280;18639;50.716;7.086;2022-08-19T11:43:46;100159.00;;;27.33;49.14
32131;BME280;18639;50.716;7.086;2022-08-19T11:46:13;100154.13;;;27.30;49.73
32131;BME280;18639;50.716;7.086;2022-08-19T11:48:40;100152.50;;;27.29;49.47
32131;BME280;18639;50.716;7.086;2022-08-19T11:51:08;100163.09;;;27.29;49.75
32131;BME280;18639;50.716;7.086;2022-08-19T11:53:35;100162.28;;;27.28;48.45
32131;BME280;18639;50.716;7.086;2022-08-19T11:56:01;100169.56;;;27.46;47.51
32131;BME280;18639;50.716;7.086;2022-08-19T11:58:27;100151.66;;;27.35;47.79
32131;BME280;18639;50.716;7.086;2022-08-19T12:00:52;100163.94;;;27.29;48.55
32131;BME280;18639;50.716;7.086;2022-08-19T12:03:18;100163.81;;;27.04;49.94
32131;BME280;18639;50.716;7.086;2022-08-19T12:05:45;100154.22;;;27.03;50.59
32131;BME280;18639;50.716;7.086;2022-08-19T12:08:11;100154.66;;;27.00;49.58
32131;BME280;18639;50.716;7.086;2022-08-19T12:10:38;100176.63;;;27.14;50.55
32131;BME280;18639;50.716;7.086;2022-08-19T12:13:05;100159.34;;;26.98;50.03
32131;BME280;18639;50.716;7.086;2022-08-19T12:15:36;100160.41;;;26.77;50.57
32131;BME280;18639;50.716;7.086;2022-08-19T12:18:02;100166.53;;;26.71;51.21
32131;BME280;18639;50.716;7.086;2022-08-19T12:20:28;100161.66;;;26.75;51.68
32131;BME280;18639;50.716;7.086;2022-08-19T12:22:53;100152.50;;;26.64;52.93
32131;BME280;18639;50.716;7.086;2022-08-19T12:25:19;100156.78;;;26.59;52.08
32131;BME280;18639;50.716;7.086;2022-08-19T12:27:45;100155.16;;;26.64;50.94
32131;BME280;18639;50.716;7.086;2022-08-19T12:30:12;100130.50;;;26.51;51.23
32131;BME280;18639;50.716;7.086;2022-08-19T12:32:38;100140.13;;;26.32;51.60
32131;BME280;18639;50.716;7.086;2022-08-19T12:35:05;100146.19;;;26.52;51.40
32131;BME280;18639;50.716;7.086;2022-08-19T12:37:31;100145.78;;;26.55;52.55
32131;BME280;18639;50.716;7.086;2022-08-19T12:39:57;100138.25;;;26.59;52.21
32131;BME280;18639;50.716;7.086;2022-08-19T12:42:22;100133.97;;;26.58;51.25
32131;BME280;18639;50.716;7.086;2022-08-19T12:44:47;100136.41;;;26.53;51.61
32131;BME280;18639;50.716;7.086;2022-08-19T12:47:13;100139.06;;;26.46;52.52
32131;BME280;18639;50.716;7.086;2022-08-19T12:49:39;100113.63;;;26.32;52.45
32131;BME280;18639;50.716;7.086;2022-08-19T12:52:07;100143.75;;;26.51;52.29
32131;BME280;18639;50.716;7.086;2022-08-19T12:54:34;100132.56;;;26.49;52.61
32131;BME280;18639;50.716;7.086;2022-08-19T12:57:00;100104.88;;;26.25;52.01